createdAt,value
2019-04-30T00:00:00.971Z,11.67
2019-04-30T00:02:38.415Z,11.68
2019-04-30T00:05:05.426Z,11.64
2019-04-30T00:07:35.758Z,11.64
2019-04-30T00:10:09.442Z,11.65
2019-04-30T00:12:39.702Z,11.62
2019-04-30T00:15:11.098Z,11.59
2019-04-30T00:17:41.109Z,11.56
2019-04-30T00:20:10.829Z,11.48
2019-04-30T00:22:47.058Z,11.41
2019-04-30T00:25:11.898Z,11.36
2019-04-30T00:27:41.549Z,11.33
2019-04-30T00:30:11.412Z,11.31
2019-04-30T00:32:43.654Z,11.34
2019-04-30T00:35:16.174Z,11.28
2019-04-30T00:37:44.978Z,11.20
2019-04-30T00:40:15.452Z,11.19
2019-04-30T00:42:45.768Z,11.15
2019-04-30T00:45:15.607Z,11.10
2019-04-30T00:47:47.868Z,11.07
2019-04-30T00:50:16.578Z,11.03
2019-04-30T00:52:46.234Z,10.98
2019-04-30T00:55:15.872Z,10.92
2019-04-30T00:57:47.421Z,10.92
2019-04-30T01:00:25.101Z,10.81
2019-04-30T01:02:51.162Z,10.84
2019-04-30T01:05:21.727Z,10.83
2019-04-30T01:07:51.928Z,10.84
2019-04-30T01:10:24.784Z,10.83
2019-04-30T01:12:53.406Z,10.87
2019-04-30T01:15:23.409Z,10.89
2019-04-30T01:17:53.979Z,10.88
2019-04-30T01:20:31.389Z,10.88
2019-04-30T01:22:56.335Z,10.92
2019-04-30T01:25:25.967Z,10.95
2019-04-30T01:27:55.690Z,10.97
2019-04-30T01:30:25.393Z,10.94
2019-04-30T01:32:56.557Z,10.90
2019-04-30T01:35:29.056Z,10.83
2019-04-30T01:37:59.455Z,10.80
2019-04-30T01:40:29.230Z,10.74
2019-04-30T01:42:59.313Z,10.74
2019-04-30T01:45:31.641Z,10.74
2019-04-30T01:48:08.459Z,10.68
2019-04-30T01:50:33.707Z,10.65
2019-04-30T01:53:04.779Z,10.63
2019-04-30T01:55:50.789Z,10.60
2019-04-30T01:58:39.339Z,10.59
2019-04-30T02:01:10.595Z,10.57
2019-04-30T02:03:40.255Z,10.56
2019-04-30T02:06:11.587Z,10.55
2019-04-30T02:08:41.288Z,10.59
2019-04-30T02:11:10.917Z,10.52
2019-04-30T02:13:40.576Z,10.45
2019-04-30T02:16:10.207Z,10.39
2019-04-30T02:18:40.125Z,10.38
2019-04-30T02:21:11.448Z,10.21
2019-04-30T02:23:41.189Z,10.13
2019-04-30T02:26:10.815Z,10.05
2019-04-30T02:28:40.480Z,10.07
2019-04-30T02:31:10.110Z,9.97
2019-04-30T02:33:41.404Z,10.03
2019-04-30T02:36:24.523Z,10.03
2019-04-30T02:38:56.050Z,10.00
2019-04-30T02:41:28.679Z,10.00
2019-04-30T02:43:59.880Z,9.96
2019-04-30T02:46:32.260Z,9.93
2019-04-30T02:49:03.590Z,9.94
2019-04-30T02:51:33.785Z,9.93
2019-04-30T02:54:09.881Z,9.87
2019-04-30T02:56:41.209Z,9.82
2019-04-30T02:59:10.839Z,9.81
2019-04-30T03:01:41.615Z,9.74
2019-04-30T03:04:11.247Z,9.71
2019-04-30T03:06:40.915Z,9.68
2019-04-30T03:09:10.946Z,9.63
2019-04-30T03:11:41.101Z,9.56
2019-04-30T03:14:11.143Z,9.46
2019-04-30T03:16:42.860Z,9.31
2019-04-30T03:19:19.527Z,9.34
2019-04-30T03:21:52.989Z,9.33
2019-04-30T03:24:22.608Z,9.30
2019-04-30T03:26:52.587Z,9.33
2019-04-30T03:29:24.005Z,9.32
2019-04-30T03:31:54.301Z,9.32
2019-04-30T03:34:25.536Z,9.31
2019-04-30T03:36:55.281Z,9.26
2019-04-30T03:39:24.900Z,9.17
2019-04-30T03:41:54.554Z,9.19
2019-04-30T03:44:25.989Z,9.23
2019-04-30T03:46:55.533Z,9.17
2019-04-30T03:49:25.163Z,9.15
2019-04-30T03:51:54.821Z,9.13
2019-04-30T03:54:24.444Z,9.09
2019-04-30T03:56:55.800Z,9.06
2019-04-30T03:59:25.520Z,9.10
2019-04-30T04:02:12.787Z,9.10
2019-04-30T04:04:53.156Z,9.09
2019-04-30T04:07:33.294Z,9.12
2019-04-30T04:10:20.850Z,9.12
2019-04-30T04:12:50.521Z,9.10
2019-04-30T04:15:20.151Z,9.08
2019-04-30T04:17:50.373Z,9.08
2019-04-30T04:20:20.536Z,9.12
2019-04-30T04:22:50.165Z,9.22
2019-04-30T04:25:20.587Z,9.29
2019-04-30T04:27:51.088Z,9.26
2019-04-30T04:30:21.186Z,9.30
2019-04-30T04:32:50.825Z,9.34
2019-04-30T04:35:20.482Z,9.40
2019-04-30T04:37:50.105Z,9.43
2019-04-30T04:40:21.048Z,9.47
2019-04-30T04:42:50.963Z,9.50
2019-04-30T04:45:20.609Z,9.56
2019-04-30T04:47:50.678Z,9.64
2019-04-30T04:50:20.443Z,9.66
2019-04-30T04:52:50.067Z,9.73
2019-04-30T04:55:22.143Z,9.75
2019-04-30T04:57:51.062Z,9.79
2019-04-30T05:00:21.503Z,9.84
2019-04-30T05:02:55.581Z,9.86
2019-04-30T05:05:25.240Z,9.89
2019-04-30T05:07:54.865Z,10.02
2019-04-30T05:10:26.780Z,10.01
2019-04-30T05:12:56.517Z,10.02
2019-04-30T05:15:26.398Z,10.08
2019-04-30T05:17:56.264Z,10.07
2019-04-30T05:20:25.914Z,10.10
2019-04-30T05:22:55.545Z,10.13
2019-04-30T05:25:25.209Z,10.20
2019-04-30T05:27:54.842Z,10.27
2019-04-30T05:30:24.497Z,10.23
2019-04-30T05:32:54.125Z,10.30
2019-04-30T05:35:23.973Z,10.35
2019-04-30T05:37:55.039Z,10.45
2019-04-30T05:40:24.707Z,10.55
2019-04-30T05:42:54.333Z,10.66
2019-04-30T05:45:24.067Z,10.73
2019-04-30T05:47:53.697Z,10.81
2019-04-30T05:50:23.637Z,10.86
2019-04-30T05:52:53.266Z,11.00
2019-04-30T05:55:22.933Z,11.05
2019-04-30T05:57:56.210Z,11.10
2019-04-30T06:00:24.082Z,11.19
2019-04-30T06:02:53.710Z,11.26
2019-04-30T06:05:24.078Z,11.32
2019-04-30T06:07:55.451Z,11.45
2019-04-30T06:10:27.049Z,11.47
2019-04-30T06:13:10.046Z,11.55
2019-04-30T06:15:53.142Z,11.56
2019-04-30T06:18:22.765Z,11.70
2019-04-30T06:20:52.569Z,11.80
2019-04-30T06:23:22.334Z,11.91
2019-04-30T06:25:59.383Z,11.93
2019-04-30T06:28:24.304Z,11.99
2019-04-30T06:30:54.497Z,12.12
2019-04-30T06:33:24.208Z,12.14
2019-04-30T06:35:55.775Z,12.13
2019-04-30T06:38:25.409Z,12.26
2019-04-30T06:40:55.056Z,12.36
2019-04-30T06:43:25.554Z,12.47
2019-04-30T06:45:55.302Z,12.58
2019-04-30T06:48:25.293Z,12.69
2019-04-30T06:50:54.928Z,12.76
2019-04-30T06:53:24.588Z,12.77
2019-04-30T06:55:54.207Z,12.76
2019-04-30T06:58:24.074Z,12.88
2019-04-30T07:00:53.698Z,12.98
2019-04-30T07:03:24.099Z,13.11
2019-04-30T07:05:53.738Z,13.17
2019-04-30T07:08:39.638Z,13.30
2019-04-30T07:11:21.845Z,13.41
2019-04-30T07:13:52.296Z,13.56
2019-04-30T07:16:22.354Z,13.63
2019-04-30T07:18:52.216Z,13.73
2019-04-30T07:21:22.156Z,13.88
2019-04-30T07:23:52.109Z,14.00
2019-04-30T07:26:24.368Z,13.99
2019-04-30T07:28:55.318Z,13.98
2019-04-30T07:31:25.048Z,14.06
2019-04-30T07:33:54.706Z,14.19
2019-04-30T07:36:42.505Z,14.38
2019-04-30T07:38:56.725Z,14.54
2019-04-30T07:41:30.788Z,14.59
2019-04-30T07:43:59.308Z,14.69
2019-04-30T07:46:29.954Z,14.80
2019-04-30T07:49:00.180Z,14.93
2019-04-30T07:51:32.080Z,15.08
2019-04-30T07:54:04.153Z,15.23
2019-04-30T07:56:38.031Z,15.30
2019-04-30T07:59:05.506Z,15.47
2019-04-30T08:01:35.129Z,15.67
2019-04-30T08:04:22.886Z,15.85
2019-04-30T08:06:52.532Z,15.87
2019-04-30T08:09:22.360Z,15.93
2019-04-30T08:11:52.316Z,16.10
2019-04-30T08:14:24.509Z,16.18
2019-04-30T08:16:53.813Z,16.39
2019-04-30T08:19:23.475Z,16.49
2019-04-30T08:21:53.108Z,16.59
2019-04-30T08:24:22.766Z,16.68
2019-04-30T08:26:53.017Z,16.80
2019-04-30T08:29:22.729Z,17.03
2019-04-30T08:31:52.382Z,17.02
2019-04-30T08:34:22.470Z,17.11
2019-04-30T08:36:53.327Z,17.40
2019-04-30T08:39:23.034Z,17.53
2019-04-30T08:41:52.671Z,17.69
2019-04-30T08:44:22.400Z,17.76
2019-04-30T08:46:52.431Z,17.82
2019-04-30T08:49:22.600Z,18.10
2019-04-30T08:51:52.692Z,18.40
2019-04-30T08:54:22.457Z,18.64
2019-04-30T08:56:52.094Z,18.67
2019-04-30T08:59:22.283Z,18.84
2019-04-30T09:01:51.905Z,18.95
2019-04-30T09:04:21.611Z,19.06
2019-04-30T09:06:51.249Z,19.32
2019-04-30T09:09:21.594Z,19.42
2019-04-30T09:11:55.390Z,19.40
2019-04-30T09:14:22.785Z,19.28
2019-04-30T09:16:54.269Z,19.35
2019-04-30T09:19:24.212Z,19.60
2019-04-30T09:21:54.174Z,19.74
2019-04-30T09:24:23.846Z,20.11
2019-04-30T09:26:53.494Z,20.08
2019-04-30T09:29:23.123Z,20.10
2019-04-30T09:31:52.802Z,20.38
2019-04-30T09:34:22.806Z,20.51
2019-04-30T09:36:52.808Z,20.37
2019-04-30T09:39:23.169Z,20.78
2019-04-30T09:41:52.883Z,21.05
2019-04-30T09:44:22.519Z,21.34
2019-04-30T09:46:52.187Z,21.77
2019-04-30T09:49:22.442Z,22.05
2019-04-30T09:51:52.424Z,22.10
2019-04-30T09:54:22.737Z,22.08
2019-04-30T09:56:52.887Z,22.23
2019-04-30T09:59:22.636Z,22.95
2019-04-30T10:01:52.488Z,23.65
2019-04-30T10:04:23.049Z,24.38
2019-04-30T10:06:54.279Z,24.81
2019-04-30T10:09:24.011Z,24.98
2019-04-30T10:11:59.575Z,25.14
2019-04-30T10:14:29.330Z,25.56
2019-04-30T10:17:00.616Z,25.78
2019-04-30T10:19:30.247Z,26.23
2019-04-30T10:21:59.905Z,26.64
2019-04-30T10:24:29.649Z,27.16
2019-04-30T10:27:00.311Z,27.26
2019-04-30T10:29:30.206Z,26.87
2019-04-30T10:31:59.889Z,26.67
2019-04-30T10:34:29.553Z,26.40
2019-04-30T10:37:01.249Z,26.19
2019-04-30T10:39:30.932Z,26.49
2019-04-30T10:42:00.648Z,26.93
2019-04-30T10:44:30.345Z,27.35
2019-04-30T10:46:59.997Z,27.13
2019-04-30T10:49:29.615Z,27.59
2019-04-30T10:52:01.117Z,27.64
2019-04-30T10:54:30.705Z,27.42
2019-04-30T10:57:00.363Z,28.05
2019-04-30T10:59:29.989Z,27.70
2019-04-30T11:01:59.648Z,28.18
2019-04-30T11:04:29.346Z,27.90
2019-04-30T11:07:00.582Z,27.81
2019-04-30T11:09:31.009Z,28.36
2019-04-30T11:12:02.970Z,28.54
2019-04-30T11:14:32.364Z,28.65
2019-04-30T11:17:02.381Z,28.32
2019-04-30T11:19:32.298Z,27.61
2019-04-30T11:22:02.355Z,26.86
2019-04-30T11:24:38.176Z,26.44
2019-04-30T11:27:04.130Z,26.91
2019-04-30T11:29:34.258Z,27.02
2019-04-30T11:32:05.936Z,27.54
2019-04-30T11:34:35.702Z,28.50
2019-04-30T11:37:05.392Z,28.50
2019-04-30T11:39:35.184Z,28.29
2019-04-30T11:42:04.985Z,27.52
2019-04-30T11:44:35.044Z,27.41
2019-04-30T11:47:13.592Z,27.41
2019-04-30T11:49:43.254Z,27.56
2019-04-30T11:52:12.888Z,27.93
2019-04-30T11:54:49.200Z,27.89
2019-04-30T11:57:13.928Z,28.12
2019-04-30T11:59:43.576Z,27.50
2019-04-30T12:02:21.818Z,27.50
2019-04-30T12:04:52.200Z,28.30
2019-04-30T12:07:32.201Z,28.15
2019-04-30T12:10:05.896Z,28.56
2019-04-30T12:12:35.613Z,29.01
2019-04-30T12:15:09.192Z,29.14
2019-04-30T12:17:38.924Z,29.17
2019-04-30T12:20:08.812Z,29.48
2019-04-30T12:22:39.701Z,29.34
2019-04-30T12:25:10.040Z,29.13
2019-04-30T12:27:39.820Z,28.45
2019-04-30T12:30:10.513Z,27.82
2019-04-30T12:32:40.337Z,27.31
2019-04-30T12:35:10.489Z,26.95
2019-04-30T12:37:40.137Z,26.28
2019-04-30T12:40:25.589Z,26.27
2019-04-30T12:42:41.337Z,25.85
2019-04-30T12:45:11.233Z,25.69
2019-04-30T12:47:45.263Z,25.27
2019-04-30T12:50:32.281Z,25.27
2019-04-30T12:53:03.591Z,25.69
2019-04-30T12:55:34.903Z,25.92
2019-04-30T12:58:05.161Z,26.18
2019-04-30T13:00:35.095Z,26.40
2019-04-30T13:03:04.723Z,26.28
2019-04-30T13:05:34.382Z,26.34
2019-04-30T13:08:04.671Z,25.37
2019-04-30T13:10:35.051Z,24.71
2019-04-30T13:13:05.251Z,24.33
2019-04-30T13:15:35.214Z,24.31
2019-04-30T13:18:04.839Z,24.18
2019-04-30T13:20:34.604Z,24.24
2019-04-30T13:23:04.786Z,24.51
2019-04-30T13:25:35.700Z,24.87
2019-04-30T13:28:07.498Z,24.84
2019-04-30T13:30:39.539Z,25.04
2019-04-30T13:33:11.435Z,25.10
2019-04-30T13:35:41.080Z,25.27
2019-04-30T13:38:15.173Z,24.89
2019-04-30T13:40:49.349Z,25.22
2019-04-30T13:43:20.652Z,24.95
2019-04-30T13:45:51.867Z,24.86
2019-04-30T13:48:22.068Z,24.75
2019-04-30T13:50:51.694Z,24.77
2019-04-30T13:53:21.344Z,24.65
2019-04-30T13:55:50.988Z,24.80
2019-04-30T13:58:20.632Z,24.75
2019-04-30T14:00:50.274Z,24.81
2019-04-30T14:03:29.050Z,24.89
2019-04-30T14:05:59.404Z,24.56
2019-04-30T14:08:30.782Z,24.30
2019-04-30T14:11:00.409Z,24.40
2019-04-30T14:13:30.067Z,24.63
2019-04-30T14:15:59.694Z,24.70
2019-04-30T14:18:33.836Z,24.54
2019-04-30T14:21:01.088Z,24.56
2019-04-30T14:23:31.338Z,24.10
2019-04-30T14:26:01.271Z,23.93
2019-04-30T14:28:31.303Z,24.02
2019-04-30T14:31:00.966Z,23.91
2019-04-30T14:33:31.209Z,23.67
2019-04-30T14:36:00.974Z,23.74
2019-04-30T14:38:30.563Z,23.71
2019-04-30T14:41:01.286Z,23.50
2019-04-30T14:43:33.724Z,23.43
2019-04-30T14:46:22.627Z,23.57
2019-04-30T14:48:54.885Z,23.76
2019-04-30T14:51:25.084Z,23.68
2019-04-30T14:54:02.433Z,23.71
2019-04-30T14:56:33.707Z,23.81
2019-04-30T14:59:18.694Z,23.88
2019-04-30T15:01:52.921Z,24.00
2019-04-30T15:04:22.574Z,23.90
2019-04-30T15:06:52.242Z,23.80
2019-04-30T15:09:22.292Z,23.69
2019-04-30T15:11:52.138Z,23.61
2019-04-30T15:14:21.760Z,23.35
2019-04-30T15:16:51.559Z,23.15
2019-04-30T15:19:21.185Z,23.21
2019-04-30T15:21:50.845Z,23.17
2019-04-30T15:24:29.303Z,23.13
2019-04-30T15:26:58.986Z,23.07
2019-04-30T15:29:29.110Z,22.91
2019-04-30T15:31:59.389Z,22.85
2019-04-30T15:34:29.424Z,22.77
2019-04-30T15:36:59.262Z,22.90
2019-04-30T15:39:36.365Z,23.05
2019-04-30T15:42:06.164Z,23.14
2019-04-30T15:44:39.986Z,23.20
2019-04-30T15:47:09.155Z,23.08
2019-04-30T15:49:38.667Z,23.22
2019-04-30T15:52:10.626Z,23.24
2019-04-30T15:54:39.655Z,23.34
2019-04-30T15:57:09.280Z,23.22
2019-04-30T15:59:40.405Z,23.22
2019-04-30T16:02:18.785Z,23.56
2019-04-30T16:04:53.069Z,23.97
2019-04-30T16:07:22.862Z,24.54
2019-04-30T16:10:10.421Z,24.34
2019-04-30T16:12:58.749Z,24.37
2019-04-30T16:15:29.776Z,24.34
2019-04-30T16:18:01.074Z,24.51
2019-04-30T16:20:30.969Z,26.04
2019-04-30T16:23:00.665Z,26.81
2019-04-30T16:25:30.433Z,27.59
2019-04-30T16:28:00.027Z,26.90
2019-04-30T16:30:29.677Z,26.88
2019-04-30T16:32:59.701Z,25.88
2019-04-30T16:35:29.611Z,26.19
2019-04-30T16:37:59.510Z,25.35
2019-04-30T16:40:29.172Z,24.22
2019-04-30T16:42:58.804Z,23.53
2019-04-30T16:45:29.068Z,23.21
2019-04-30T16:47:58.764Z,22.85
2019-04-30T16:50:29.900Z,22.53
2019-04-30T16:52:59.625Z,22.27
2019-04-30T16:55:29.272Z,22.17
2019-04-30T16:57:58.902Z,22.04
2019-04-30T17:00:30.719Z,21.96
2019-04-30T17:03:01.667Z,22.07
2019-04-30T17:05:39.601Z,22.15
2019-04-30T17:08:16.817Z,22.01
2019-04-30T17:10:50.361Z,22.21
2019-04-30T17:13:21.087Z,22.30
2019-04-30T17:15:58.124Z,21.94
2019-04-30T17:18:29.652Z,21.58
2019-04-30T17:20:59.102Z,21.27
2019-04-30T17:23:29.328Z,21.17
2019-04-30T17:25:58.963Z,21.00
2019-04-30T17:28:28.623Z,21.31
2019-04-30T17:30:58.904Z,21.59
2019-04-30T17:33:28.580Z,21.62
2019-04-30T17:35:58.200Z,21.38
2019-04-30T17:38:27.848Z,20.84
2019-04-30T17:40:57.481Z,20.55
2019-04-30T17:43:27.143Z,20.44
2019-04-30T17:45:58.524Z,20.26
2019-04-30T17:48:29.141Z,20.08
2019-04-30T17:51:00.335Z,19.93
2019-04-30T17:53:30.854Z,19.77
2019-04-30T17:56:00.491Z,19.53
2019-04-30T17:58:30.145Z,19.36
2019-04-30T18:01:01.415Z,19.30
2019-04-30T18:03:31.142Z,19.14
2019-04-30T18:06:00.776Z,18.94
2019-04-30T18:08:30.542Z,18.76
2019-04-30T18:11:00.245Z,18.71
2019-04-30T18:13:29.887Z,18.57
2019-04-30T18:16:00.456Z,18.50
2019-04-30T18:18:31.799Z,18.46
2019-04-30T18:21:06.084Z,18.34
2019-04-30T18:23:50.164Z,18.28
2019-04-30T18:26:19.788Z,18.18
2019-04-30T18:28:49.441Z,18.01
2019-04-30T18:31:19.078Z,17.86
2019-04-30T18:33:49.284Z,17.81
2019-04-30T18:36:20.629Z,17.74
2019-04-30T18:38:50.621Z,17.69
2019-04-30T18:41:20.255Z,17.63
2019-04-30T18:43:49.915Z,17.57
2019-04-30T18:46:19.553Z,17.46
2019-04-30T18:48:50.273Z,17.36
2019-04-30T18:51:35.919Z,17.29
2019-04-30T18:53:52.089Z,17.21
2019-04-30T18:56:22.137Z,17.10
2019-04-30T18:58:52.077Z,16.91
2019-04-30T19:01:22.077Z,16.68
2019-04-30T19:03:51.706Z,16.56
2019-04-30T19:06:26.058Z,16.56
2019-04-30T19:09:12.458Z,16.49
2019-04-30T19:11:43.825Z,16.37
2019-04-30T19:14:15.098Z,16.25
2019-04-30T19:16:55.136Z,16.24
2019-04-30T19:19:26.408Z,16.16
2019-04-30T19:21:56.067Z,16.08
2019-04-30T19:24:25.726Z,16.00
2019-04-30T19:26:55.397Z,15.95
2019-04-30T19:29:25.013Z,15.94
2019-04-30T19:31:54.866Z,15.85
2019-04-30T19:34:24.602Z,15.75
2019-04-30T19:36:54.390Z,15.70
2019-04-30T19:39:24.032Z,15.58
2019-04-30T19:41:53.689Z,15.49
2019-04-30T19:44:23.346Z,15.34
2019-04-30T19:46:53.368Z,15.31
2019-04-30T19:49:22.988Z,15.29
2019-04-30T19:52:05.591Z,15.14
2019-04-30T19:54:24.059Z,15.03
2019-04-30T19:56:53.721Z,14.98
2019-04-30T19:59:23.340Z,14.87
2019-04-30T20:01:53.386Z,14.70
2019-04-30T20:04:32.608Z,14.62
2019-04-30T20:06:54.349Z,14.58
2019-04-30T20:09:23.982Z,14.47
2019-04-30T20:11:56.626Z,14.43
2019-04-30T20:14:24.959Z,14.37
2019-04-30T20:16:54.926Z,14.27
2019-04-30T20:19:24.868Z,14.23
2019-04-30T20:21:54.972Z,14.16
2019-04-30T20:24:24.960Z,14.08
2019-04-30T20:27:04.960Z,14.01
2019-04-30T20:29:25.929Z,13.90
2019-04-30T20:31:55.735Z,13.82
2019-04-30T20:34:25.391Z,13.80
2019-04-30T20:36:55.024Z,13.78
2019-04-30T20:39:29.363Z,13.74
2019-04-30T20:41:59.260Z,13.65
2019-04-30T20:44:29.114Z,13.62
2019-04-30T20:46:59.142Z,13.65
2019-04-30T20:49:29.209Z,13.60
2019-04-30T20:51:59.082Z,13.58
2019-04-30T20:54:29.186Z,13.59
2019-04-30T20:56:59.108Z,13.52
2019-04-30T20:59:29.046Z,13.53
2019-04-30T21:01:58.721Z,13.52
2019-04-30T21:04:28.389Z,13.51
2019-04-30T21:06:59.507Z,13.43
2019-04-30T21:09:29.253Z,13.34
2019-04-30T21:11:58.920Z,13.35
2019-04-30T21:14:28.539Z,13.29
2019-04-30T21:16:58.470Z,13.28
2019-04-30T21:19:28.128Z,13.30
2019-04-30T21:21:59.490Z,13.28
2019-04-30T21:24:29.291Z,13.22
2019-04-30T21:26:58.918Z,13.24
2019-04-30T21:29:29.571Z,13.11
2019-04-30T21:32:06.700Z,13.09
2019-04-30T21:34:39.372Z,13.01
2019-04-30T21:37:09.430Z,12.97
2019-04-30T21:39:39.040Z,12.89
2019-04-30T21:42:09.294Z,12.89
2019-04-30T21:44:39.113Z,12.87
2019-04-30T21:47:08.842Z,12.86
2019-04-30T21:49:38.504Z,12.81
2019-04-30T21:52:08.130Z,12.74
2019-04-30T21:54:38.792Z,12.69
2019-04-30T21:57:08.485Z,12.67
2019-04-30T21:59:38.856Z,12.63
2019-04-30T22:02:09.020Z,12.60
2019-04-30T22:04:38.669Z,12.52
2019-04-30T22:07:09.352Z,12.45
2019-04-30T22:09:39.130Z,12.38
2019-04-30T22:12:09.248Z,12.39
2019-04-30T22:14:38.892Z,12.26
2019-04-30T22:17:09.296Z,12.23
2019-04-30T22:19:38.944Z,12.19
2019-04-30T22:22:09.369Z,12.18
2019-04-30T22:24:39.102Z,12.26
2019-04-30T22:27:08.726Z,12.21
2019-04-30T22:29:41.919Z,12.17
2019-04-30T22:32:09.699Z,12.15
2019-04-30T22:34:39.352Z,12.19
2019-04-30T22:37:08.981Z,12.14
2019-04-30T22:39:40.280Z,12.14
2019-04-30T22:42:25.029Z,12.12
2019-04-30T22:44:54.996Z,12.17
2019-04-30T22:47:25.040Z,12.20
2019-04-30T22:49:54.687Z,12.16
2019-04-30T22:52:24.321Z,12.15
2019-04-30T22:54:54.374Z,12.13
2019-04-30T22:57:24.027Z,12.17
2019-04-30T22:59:53.656Z,12.07
2019-04-30T23:02:28.210Z,12.05
2019-04-30T23:04:58.909Z,12.08
2019-04-30T23:07:28.839Z,12.06
2019-04-30T23:09:58.522Z,12.06
2019-04-30T23:12:28.233Z,12.09
2019-04-30T23:14:57.867Z,12.09
2019-04-30T23:17:27.616Z,12.10
2019-04-30T23:19:57.348Z,12.07
2019-04-30T23:22:27.262Z,12.06
2019-04-30T23:24:57.229Z,12.06
2019-04-30T23:27:26.890Z,12.05
2019-04-30T23:30:03.125Z,12.02
2019-04-30T23:32:27.870Z,12.01
2019-04-30T23:34:57.505Z,11.99
2019-04-30T23:37:27.228Z,12.04
2019-04-30T23:39:58.434Z,12.02
2019-04-30T23:42:28.091Z,12.03
2019-04-30T23:44:58.008Z,12.01
2019-04-30T23:47:27.662Z,12.00
2019-04-30T23:49:57.286Z,12.00
2019-04-30T23:52:27.246Z,12.00
2019-04-30T23:54:56.873Z,11.99
2019-04-30T23:57:26.515Z,11.94
2019-04-30T23:59:56.145Z,11.97
